sensor_id;sensor_type;location;lat;lon;timestamp;pressure;altitude;pressure_sealevel;temperature;humidity
57568;BME280;43403;51.948;5.922;2022-07-21T00:01:04;101719.91;;;22.14;100.00
57568;BME280;43403;51.948;5.922;2022-07-21T00:03:30;101707.78;;;22.18;100.00
57568;BME280;43403;51.948;5.922;2022-07-21T00:05:57;101715.16;;;22.09;100.00
57568;BME280;43403;51.948;5.922;2022-07-21T00:08:23;101721.53;;;22.08;100.00
57568;BME280;43403;51.948;5.922;2022-07-21T00:10:50;101737.34;;;22.03;100.00
57568;BME280;43403;51.948;5.922;2022-07-21T00:13:16;101732.81;;;22.04;100.00
57568;BME280;43403;51.948;5.922;2022-07-21T00:15:43;101744.50;;;22.03;100.00
57568;BME280;43403;51.948;5.922;2022-07-21T00:18:09;101741.84;;;22.03;100.00
57568;BME280;43403;51.948;5.922;2022-07-21T00:20:36;101746.34;;;21.96;100.00
57568;BME280;43403;51.948;5.922;2022-07-21T00:23:03;101745.31;;;21.90;100.00
57568;BME280;43403;51.948;5.922;2022-07-21T00:25:30;101744.25;;;21.91;100.00
57568;BME280;43403;51.948;5.922;2022-07-21T00:28:01;101732.34;;;21.87;100.00
57568;BME280;43403;51.948;5.922;2022-07-21T00:30:28;101745.03;;;21.78;100.00
57568;BME280;43403;51.948;5.922;2022-07-21T00:32:55;101747.09;;;21.83;100.00
57568;BME280;43403;51.948;5.922;2022-07-21T00:35:21;101739.09;;;21.83;100.00
57568;BME280;43403;51.948;5.922;2022-07-21T00:37:48;101738.47;;;21.81;100.00
57568;BME280;43403;51.948;5.922;2022-07-21T00:40:14;101736.63;;;21.81;100.00
57568;BME280;43403;51.948;5.922;2022-07-21T00:42:42;101725.13;;;21.81;100.00
57568;BME280;43403;51.948;5.922;2022-07-21T00:45:10;101726.53;;;21.77;100.00
57568;BME280;43403;51.948;5.922;2022-07-21T00:47:37;101725.94;;;21.81;100.00
57568;BME280;43403;51.948;5.922;2022-07-21T00:50:08;101733.13;;;21.81;100.00
57568;BME280;43403;51.948;5.922;2022-07-21T00:52:35;101731.06;;;21.76;100.00
57568;BME280;43403;51.948;5.922;2022-07-21T00:55:01;101722.44;;;21.74;100.00
57568;BME280;43403;51.948;5.922;2022-07-21T00:57:28;101724.47;;;21.72;100.00
57568;BME280;43403;51.948;5.922;2022-07-21T00:59:55;101728.78;;;21.73;100.00
57568;BME280;43403;51.948;5.922;2022-07-21T01:02:21;101728.16;;;21.71;100.00
57568;BME280;43403;51.948;5.922;2022-07-21T01:04:47;101726.28;;;21.65;100.00
57568;BME280;43403;51.948;5.922;2022-07-21T01:07:14;101708.97;;;21.54;100.00
57568;BME280;43403;51.948;5.922;2022-07-21T01:09:42;101705.03;;;21.50;100.00
57568;BME280;43403;51.948;5.922;2022-07-21T01:12:09;101702.97;;;21.45;100.00
57568;BME280;43403;51.948;5.922;2022-07-21T01:14:35;101700.31;;;21.45;100.00
57568;BME280;43403;51.948;5.922;2022-07-21T01:17:03;101702.34;;;21.43;100.00
57568;BME280;43403;51.948;5.922;2022-07-21T01:19:29;101699.50;;;21.45;100.00
57568;BME280;43403;51.948;5.922;2022-07-21T01:21:56;101696.81;;;21.45;100.00
57568;BME280;43403;51.948;5.922;2022-07-21T01:24:22;101699.50;;;21.45;100.00
57568;BME280;43403;51.948;5.922;2022-07-21T01:26:51;101702.50;;;21.42;100.00
57568;BME280;43403;51.948;5.922;2022-07-21T01:29:19;101705.38;;;21.40;100.00
57568;BME280;43403;51.948;5.922;2022-07-21T01:31:47;101702.94;;;21.39;100.00
57568;BME280;43403;51.948;5.922;2022-07-21T01:34:15;101702.69;;;21.40;100.00
57568;BME280;43403;51.948;5.922;2022-07-21T01:36:41;101707.50;;;21.45;100.00
57568;BME280;43403;51.948;5.922;2022-07-21T01:39:08;101713.06;;;21.50;100.00
57568;BME280;43403;51.948;5.922;2022-07-21T01:41:53;101706.28;;;21.47;100.00
57568;BME280;43403;51.948;5.922;2022-07-21T01:44:20;101709.69;;;21.41;100.00
57568;BME280;43403;51.948;5.922;2022-07-21T01:46:49;101713.47;;;21.47;100.00
57568;BME280;43403;51.948;5.922;2022-07-21T01:49:17;101712.44;;;21.48;100.00
57568;BME280;43403;51.948;5.922;2022-07-21T01:51:44;101712.75;;;21.38;100.00
57568;BME280;43403;51.948;5.922;2022-07-21T01:54:11;101711.50;;;21.34;100.00
57568;BME280;43403;51.948;5.922;2022-07-21T01:56:38;101701.25;;;21.38;100.00
57568;BME280;43403;51.948;5.922;2022-07-21T01:59:05;101695.50;;;21.34;100.00
57568;BME280;43403;51.948;5.922;2022-07-21T02:01:33;101703.47;;;21.27;100.00
57568;BME280;43403;51.948;5.922;2022-07-21T02:04:03;101698.75;;;21.29;100.00
57568;BME280;43403;51.948;5.922;2022-07-21T02:06:31;101698.69;;;21.23;100.00
57568;BME280;43403;51.948;5.922;2022-07-21T02:08:58;101693.88;;;21.05;100.00
57568;BME280;43403;51.948;5.922;2022-07-21T02:11:25;101687.91;;;21.03;100.00
57568;BME280;43403;51.948;5.922;2022-07-21T02:13:51;101686.84;;;20.97;100.00
57568;BME280;43403;51.948;5.922;2022-07-21T02:16:18;101683.97;;;20.99;100.00
57568;BME280;43403;51.948;5.922;2022-07-21T02:18:45;101682.28;;;20.91;100.00
57568;BME280;43403;51.948;5.922;2022-07-21T02:21:11;101680.03;;;20.88;100.00
57568;BME280;43403;51.948;5.922;2022-07-21T02:23:41;101683.31;;;20.90;100.00
57568;BME280;43403;51.948;5.922;2022-07-21T02:26:07;101691.94;;;20.92;100.00
57568;BME280;43403;51.948;5.922;2022-07-21T02:28:34;101675.53;;;20.95;100.00
57568;BME280;43403;51.948;5.922;2022-07-21T02:31:00;101682.28;;;20.91;100.00
57568;BME280;43403;51.948;5.922;2022-07-21T02:33:27;101683.50;;;20.88;100.00
57568;BME280;43403;51.948;5.922;2022-07-21T02:35:53;101680.47;;;20.91;100.00
57568;BME280;43403;51.948;5.922;2022-07-21T02:38:20;101690.06;;;20.86;100.00
57568;BME280;43403;51.948;5.922;2022-07-21T02:40:46;101690.25;;;20.84;100.00
57568;BME280;43403;51.948;5.922;2022-07-21T02:43:19;101695.56;;;20.84;100.00
57568;BME280;43403;51.948;5.922;2022-07-21T02:45:45;101686.94;;;20.82;100.00
57568;BME280;43403;51.948;5.922;2022-07-21T02:48:12;101685.91;;;20.83;100.00
57568;BME280;43403;51.948;5.922;2022-07-21T02:50:41;101688.38;;;20.85;100.00
57568;BME280;43403;51.948;5.922;2022-07-21T02:53:13;101682.84;;;20.80;100.00
57568;BME280;43403;51.948;5.922;2022-07-21T02:55:43;101686.69;;;20.77;100.00
57568;BME280;43403;51.948;5.922;2022-07-21T02:58:16;101676.47;;;20.81;100.00
57568;BME280;43403;51.948;5.922;2022-07-21T03:00:54;101683.25;;;20.83;100.00
57568;BME280;43403;51.948;5.922;2022-07-21T03:03:23;101680.59;;;20.83;100.00
57568;BME280;43403;51.948;5.922;2022-07-21T03:05:49;101688.16;;;20.80;100.00
57568;BME280;43403;51.948;5.922;2022-07-21T03:52:09;101695.13;;;20.16;100.00
57568;BME280;43403;51.948;5.922;2022-07-21T03:54:35;101692.38;;;20.09;100.00
57568;BME280;43403;51.948;5.922;2022-07-21T03:57:01;101687.59;;;20.05;100.00
57568;BME280;43403;51.948;5.922;2022-07-21T03:59:28;101683.56;;;20.09;100.00
57568;BME280;43403;51.948;5.922;2022-07-21T04:01:54;101684.94;;;20.05;100.00
57568;BME280;43403;51.948;5.922;2022-07-21T04:04:21;101687.44;;;20.06;100.00
57568;BME280;43403;51.948;5.922;2022-07-21T04:06:47;101685.28;;;20.17;100.00
57568;BME280;43403;51.948;5.922;2022-07-21T04:09:14;101683.19;;;20.12;100.00
57568;BME280;43403;51.948;5.922;2022-07-21T04:11:41;101688.06;;;20.08;100.00
57568;BME280;43403;51.948;5.922;2022-07-21T04:14:08;101683.00;;;20.13;100.00
57568;BME280;43403;51.948;5.922;2022-07-21T04:16:34;101684.19;;;20.11;100.00
57568;BME280;43403;51.948;5.922;2022-07-21T04:19:01;101676.59;;;20.08;100.00
57568;BME280;43403;51.948;5.922;2022-07-21T04:21:27;101681.78;;;20.16;100.00
57568;BME280;43403;51.948;5.922;2022-07-21T04:23:54;101690.03;;;20.00;100.00
57568;BME280;43403;51.948;5.922;2022-07-21T04:26:20;101688.81;;;20.02;100.00
57568;BME280;43403;51.948;5.922;2022-07-21T04:28:46;101684.59;;;20.08;100.00
57568;BME280;43403;51.948;5.922;2022-07-21T04:31:13;101679.88;;;20.10;100.00
57568;BME280;43403;51.948;5.922;2022-07-21T04:33:39;101681.00;;;20.01;100.00
57568;BME280;43403;51.948;5.922;2022-07-21T04:36:06;101683.84;;;19.99;100.00
57568;BME280;43403;51.948;5.922;2022-07-21T04:38:33;101688.47;;;20.05;100.00
57568;BME280;43403;51.948;5.922;2022-07-21T04:40:59;101690.66;;;20.02;100.00
57568;BME280;43403;51.948;5.922;2022-07-21T04:43:26;101689.28;;;20.06;100.00
57568;BME280;43403;51.948;5.922;2022-07-21T04:45:52;101683.31;;;20.04;100.00
57568;BME280;43403;51.948;5.922;2022-07-21T04:48:18;101690.72;;;20.08;100.00
57568;BME280;43403;51.948;5.922;2022-07-21T04:50:45;101691.13;;;20.05;100.00
57568;BME280;43403;51.948;5.922;2022-07-21T04:53:11;101702.13;;;20.02;100.00
57568;BME280;43403;51.948;5.922;2022-07-21T04:55:38;101692.69;;;20.00;100.00
57568;BME280;43403;51.948;5.922;2022-07-21T04:58:04;101693.16;;;20.03;100.00
57568;BME280;43403;51.948;5.922;2022-07-21T05:00:31;101685.22;;;20.10;100.00
57568;BME280;43403;51.948;5.922;2022-07-21T05:02:57;101686.84;;;20.11;100.00
57568;BME280;43403;51.948;5.922;2022-07-21T05:05:23;101680.75;;;19.95;100.00
57568;BME280;43403;51.948;5.922;2022-07-21T05:07:50;101676.50;;;20.01;100.00
57568;BME280;43403;51.948;5.922;2022-07-21T05:10:17;101682.50;;;20.03;100.00
57568;BME280;43403;51.948;5.922;2022-07-21T05:12:45;101680.38;;;19.99;100.00
57568;BME280;43403;51.948;5.922;2022-07-21T05:15:12;101672.66;;;20.04;100.00
57568;BME280;43403;51.948;5.922;2022-07-21T05:17:40;101674.22;;;19.98;100.00
57568;BME280;43403;51.948;5.922;2022-07-21T05:20:07;101676.97;;;20.05;100.00
57568;BME280;43403;51.948;5.922;2022-07-21T05:22:34;101667.38;;;19.89;100.00
57568;BME280;43403;51.948;5.922;2022-07-21T05:25:00;101659.19;;;19.90;100.00
57568;BME280;43403;51.948;5.922;2022-07-21T05:27:27;101667.47;;;19.81;100.00
57568;BME280;43403;51.948;5.922;2022-07-21T05:29:53;101660.31;;;19.81;100.00
57568;BME280;43403;51.948;5.922;2022-07-21T05:32:21;101661.06;;;19.75;100.00
57568;BME280;43403;51.948;5.922;2022-07-21T05:34:47;101668.50;;;19.65;100.00
57568;BME280;43403;51.948;5.922;2022-07-21T05:37:13;101660.97;;;19.68;100.00
57568;BME280;43403;51.948;5.922;2022-07-21T05:39:40;101653.34;;;19.65;100.00
57568;BME280;43403;51.948;5.922;2022-07-21T05:42:06;101657.75;;;19.73;100.00
57568;BME280;43403;51.948;5.922;2022-07-21T05:44:33;101655.09;;;19.73;100.00
57568;BME280;43403;51.948;5.922;2022-07-21T05:46:59;101651.69;;;19.79;100.00
57568;BME280;43403;51.948;5.922;2022-07-21T05:49:26;101654.44;;;19.86;100.00
57568;BME280;43403;51.948;5.922;2022-07-21T05:51:52;101664.75;;;19.74;100.00
57568;BME280;43403;51.948;5.922;2022-07-21T05:54:18;101660.50;;;19.80;100.00
57568;BME280;43403;51.948;5.922;2022-07-21T05:56:45;101643.63;;;19.72;100.00
57568;BME280;43403;51.948;5.922;2022-07-21T05:59:11;101653.78;;;19.69;100.00
57568;BME280;43403;51.948;5.922;2022-07-21T06:01:38;101641.31;;;19.69;100.00
57568;BME280;43403;51.948;5.922;2022-07-21T06:04:04;101642.88;;;19.64;100.00
57568;BME280;43403;51.948;5.922;2022-07-21T06:06:31;101640.22;;;19.64;100.00
57568;BME280;43403;51.948;5.922;2022-07-21T06:08:57;101638.41;;;19.64;100.00
57568;BME280;43403;51.948;5.922;2022-07-21T06:11:24;101651.94;;;19.69;100.00
57568;BME280;43403;51.948;5.922;2022-07-21T06:13:50;101649.94;;;19.71;100.00
57568;BME280;43403;51.948;5.922;2022-07-21T06:16:17;101657.47;;;19.83;100.00
57568;BME280;43403;51.948;5.922;2022-07-21T06:18:43;101650.13;;;19.85;100.00
57568;BME280;43403;51.948;5.922;2022-07-21T06:21:10;101657.59;;;19.74;100.00
57568;BME280;43403;51.948;5.922;2022-07-21T06:23:36;101658.66;;;19.65;100.00
57568;BME280;43403;51.948;5.922;2022-07-21T06:26:03;101665.72;;;19.58;100.00
57568;BME280;43403;51.948;5.922;2022-07-21T06:28:29;101656.94;;;19.58;100.00
57568;BME280;43403;51.948;5.922;2022-07-21T06:30:56;101661.72;;;19.62;100.00
57568;BME280;43403;51.948;5.922;2022-07-21T06:33:22;101661.13;;;19.67;100.00
57568;BME280;43403;51.948;5.922;2022-07-21T06:35:49;101670.06;;;19.74;100.00
57568;BME280;43403;51.948;5.922;2022-07-21T06:38:15;101669.44;;;19.72;100.00
57568;BME280;43403;51.948;5.922;2022-07-21T06:40:42;101670.13;;;19.66;100.00
57568;BME280;43403;51.948;5.922;2022-07-21T06:43:09;101670.06;;;19.74;100.00
57568;BME280;43403;51.948;5.922;2022-07-21T06:45:55;101682.81;;;19.79;100.00
57568;BME280;43403;51.948;5.922;2022-07-21T06:48:22;101679.03;;;19.88;100.00
57568;BME280;43403;51.948;5.922;2022-07-21T06:50:49;101680.78;;;19.81;100.00
57568;BME280;43403;51.948;5.922;2022-07-21T18:48:24;101957.63;;;18.72;100.00
57568;BME280;43403;51.948;5.922;2022-07-21T18:51:39;101958.94;;;18.68;100.00
57568;BME280;43403;51.948;5.922;2022-07-21T18:54:11;101963.16;;;18.62;100.00
57568;BME280;43403;51.948;5.922;2022-07-21T18:56:39;101962.97;;;18.64;100.00
57568;BME280;43403;51.948;5.922;2022-07-21T18:59:05;101971.59;;;18.66;100.00
57568;BME280;43403;51.948;5.922;2022-07-21T19:01:32;101969.59;;;18.68;100.00
57568;BME280;43403;51.948;5.922;2022-07-21T19:03:59;101977.59;;;18.60;100.00
57568;BME280;43403;51.948;5.922;2022-07-21T19:06:25;101978.81;;;18.49;100.00
57568;BME280;43403;51.948;5.922;2022-07-21T19:08:52;101974.97;;;18.51;100.00
57568;BME280;43403;51.948;5.922;2022-07-21T19:11:18;101980.16;;;18.45;100.00
57568;BME280;43403;51.948;5.922;2022-07-21T19:13:45;101980.31;;;18.43;100.00
57568;BME280;43403;51.948;5.922;2022-07-21T19:16:12;101983.78;;;18.44;100.00
57568;BME280;43403;51.948;5.922;2022-07-21T19:18:39;101990.28;;;18.41;100.00
57568;BME280;43403;51.948;5.922;2022-07-21T19:21:05;101992.28;;;18.39;100.00
57568;BME280;43403;51.948;5.922;2022-07-21T19:23:35;101994.28;;;18.37;100.00
57568;BME280;43403;51.948;5.922;2022-07-21T19:26:02;101999.59;;;18.29;100.00
57568;BME280;43403;51.948;5.922;2022-07-21T19:28:29;101999.41;;;18.30;100.00
57568;BME280;43403;51.948;5.922;2022-07-21T19:31:01;102002.75;;;18.24;100.00
57568;BME280;43403;51.948;5.922;2022-07-21T19:33:28;102014.19;;;18.16;100.00
57568;BME280;43403;51.948;5.922;2022-07-21T19:35:55;102010.75;;;18.08;100.00
57568;BME280;43403;51.948;5.922;2022-07-21T19:38:21;102022.84;;;18.02;100.00
57568;BME280;43403;51.948;5.922;2022-07-21T19:40:48;102021.69;;;17.96;100.00
57568;BME280;43403;51.948;5.922;2022-07-21T19:43:18;102019.53;;;17.92;100.00
57568;BME280;43403;51.948;5.922;2022-07-21T19:45:45;102017.84;;;17.83;100.00
57568;BME280;43403;51.948;5.922;2022-07-21T19:48:12;102029.16;;;17.85;100.00
57568;BME280;43403;51.948;5.922;2022-07-21T19:50:44;102030.44;;;17.81;100.00
57568;BME280;43403;51.948;5.922;2022-07-21T19:53:10;102033.09;;;17.81;100.00
57568;BME280;43403;51.948;5.922;2022-07-21T19:55:37;102033.09;;;17.81;100.00
57568;BME280;43403;51.948;5.922;2022-07-21T19:58:03;102026.13;;;17.79;100.00
57568;BME280;43403;51.948;5.922;2022-07-21T20:00:29;102035.59;;;17.74;100.00
57568;BME280;43403;51.948;5.922;2022-07-21T20:02:56;102036.72;;;17.79;100.00
57568;BME280;43403;51.948;5.922;2022-07-21T20:05:22;102035.09;;;17.78;100.00
57568;BME280;43403;51.948;5.922;2022-07-21T20:07:49;102040.56;;;17.69;100.00
57568;BME280;43403;51.948;5.922;2022-07-21T20:10:15;102040.03;;;17.73;100.00
57568;BME280;43403;51.948;5.922;2022-07-21T20:12:42;102037.91;;;17.69;100.00
57568;BME280;43403;51.948;5.922;2022-07-21T20:15:09;102047.50;;;17.70;100.00
57568;BME280;43403;51.948;5.922;2022-07-21T20:17:36;102051.47;;;17.66;100.00
57568;BME280;43403;51.948;5.922;2022-07-21T20:20:08;102050.66;;;17.73;100.00
57568;BME280;43403;51.948;5.922;2022-07-21T20:22:35;102044.03;;;17.77;100.00
57568;BME280;43403;51.948;5.922;2022-07-21T20:25:01;102046.88;;;17.76;100.00
57568;BME280;43403;51.948;5.922;2022-07-21T20:27:27;102035.25;;;17.77;100.00
57568;BME280;43403;51.948;5.922;2022-07-21T20:29:54;102041.56;;;17.76;100.00
57568;BME280;43403;51.948;5.922;2022-07-21T20:32:20;102041.38;;;17.77;100.00
57568;BME280;43403;51.948;5.922;2022-07-21T20:34:47;102041.72;;;17.74;100.00
57568;BME280;43403;51.948;5.922;2022-07-21T20:37:13;102045.19;;;17.75;100.00
57568;BME280;43403;51.948;5.922;2022-07-21T20:39:40;102043.22;;;17.77;100.00
57568;BME280;43403;51.948;5.922;2022-07-21T20:42:27;102048.50;;;17.77;100.00
57568;BME280;43403;51.948;5.922;2022-07-21T20:44:53;102052.50;;;17.73;100.00
57568;BME280;43403;51.948;5.922;2022-07-21T20:47:20;102063.59;;;17.68;100.00
57568;BME280;43403;51.948;5.922;2022-07-21T20:49:46;102065.59;;;17.66;100.00
57568;BME280;43403;51.948;5.922;2022-07-21T20:52:13;102074.88;;;17.62;100.00
57568;BME280;43403;51.948;5.922;2022-07-21T20:54:40;102071.72;;;17.58;100.00
57568;BME280;43403;51.948;5.922;2022-07-21T20:57:06;102067.91;;;17.61;100.00
57568;BME280;43403;51.948;5.922;2022-07-21T20:59:38;102072.22;;;17.62;100.00
57568;BME280;43403;51.948;5.922;2022-07-21T21:02:04;102068.22;;;17.58;100.00
57568;BME280;43403;51.948;5.922;2022-07-21T21:04:31;102070.56;;;17.69;100.00
57568;BME280;43403;51.948;5.922;2022-07-21T21:06:57;102068.91;;;17.68;100.00
57568;BME280;43403;51.948;5.922;2022-07-21T21:09:24;102078.38;;;17.71;100.00
57568;BME280;43403;51.948;5.922;2022-07-21T21:11:50;102072.38;;;17.69;100.00
57568;BME280;43403;51.948;5.922;2022-07-21T21:14:17;102076.88;;;17.68;100.00
57568;BME280;43403;51.948;5.922;2022-07-21T21:16:43;102076.53;;;17.71;100.00
57568;BME280;43403;51.948;5.922;2022-07-21T21:19:10;102080.00;;;17.72;100.00
57568;BME280;43403;51.948;5.922;2022-07-21T21:21:36;102082.84;;;17.70;100.00
57568;BME280;43403;51.948;5.922;2022-07-21T21:24:04;102081.31;;;17.68;100.00
57568;BME280;43403;51.948;5.922;2022-07-21T21:26:30;102090.09;;;17.60;100.00
57568;BME280;43403;51.948;5.922;2022-07-21T21:28:57;102080.81;;;17.56;100.00
57568;BME280;43403;51.948;5.922;2022-07-21T21:31:24;102081.94;;;17.45;100.00
57568;BME280;43403;51.948;5.922;2022-07-21T21:33:50;102086.44;;;17.45;100.00
57568;BME280;43403;51.948;5.922;2022-07-21T21:36:17;102083.28;;;17.49;100.00
57568;BME280;43403;51.948;5.922;2022-07-21T21:38:44;102079.81;;;17.49;100.00
57568;BME280;43403;51.948;5.922;2022-07-21T21:41:11;102082.47;;;17.49;100.00
57568;BME280;43403;51.948;5.922;2022-07-21T21:43:37;102088.44;;;17.51;100.00
57568;BME280;43403;51.948;5.922;2022-07-21T21:46:04;102090.94;;;17.52;100.00
57568;BME280;43403;51.948;5.922;2022-07-21T21:48:38;102095.22;;;17.53;100.00
57568;BME280;43403;51.948;5.922;2022-07-21T21:51:06;102088.75;;;17.48;100.00
57568;BME280;43403;51.948;5.922;2022-07-21T21:53:34;102092.88;;;17.42;100.00
57568;BME280;43403;51.948;5.922;2022-07-21T21:56:01;102094.34;;;17.36;100.00
57568;BME280;43403;51.948;5.922;2022-07-21T21:58:27;102103.16;;;17.37;100.00
57568;BME280;43403;51.948;5.922;2022-07-21T22:00:53;102098.47;;;17.31;100.00
57568;BME280;43403;51.948;5.922;2022-07-21T22:03:20;102092.47;;;17.29;100.00
57568;BME280;43403;51.948;5.922;2022-07-21T22:05:47;102102.94;;;17.30;100.00
57568;BME280;43403;51.948;5.922;2022-07-21T22:08:13;102104.13;;;17.36;100.00
57568;BME280;43403;51.948;5.922;2022-07-21T22:10:40;102104.75;;;17.30;100.00
57568;BME280;43403;51.948;5.922;2022-07-21T22:13:06;102113.38;;;17.32;100.00
57568;BME280;43403;51.948;5.922;2022-07-21T22:15:33;102112.41;;;17.33;100.00
57568;BME280;43403;51.948;5.922;2022-07-21T22:17:59;102106.09;;;17.34;100.00
57568;BME280;43403;51.948;5.922;2022-07-21T22:20:26;102117.53;;;17.34;100.00
57568;BME280;43403;51.948;5.922;2022-07-21T22:22:53;102112.06;;;17.36;100.00
57568;BME280;43403;51.948;5.922;2022-07-21T22:25:19;102109.41;;;17.36;100.00
57568;BME280;43403;51.948;5.922;2022-07-21T22:27:45;102117.53;;;17.34;100.00
57568;BME280;43403;51.948;5.922;2022-07-21T22:30:12;102119.69;;;17.31;100.00
57568;BME280;43403;51.948;5.922;2022-07-21T22:32:39;102126.50;;;17.33;100.00
57568;BME280;43403;51.948;5.922;2022-07-21T22:35:07;102124.34;;;17.37;100.00
57568;BME280;43403;51.948;5.922;2022-07-21T22:37:33;102121.19;;;17.33;100.00
57568;BME280;43403;51.948;5.922;2022-07-21T22:39:59;102116.88;;;17.32;100.00
57568;BME280;43403;51.948;5.922;2022-07-21T22:42:26;102122.66;;;17.28;100.00
57568;BME280;43403;51.948;5.922;2022-07-21T22:44:53;102122.81;;;17.26;100.00
57568;BME280;43403;51.948;5.922;2022-07-21T22:47:19;102121.31;;;17.24;100.00
57568;BME280;43403;51.948;5.922;2022-07-21T22:49:46;102134.06;;;17.20;100.00
57568;BME280;43403;51.948;5.922;2022-07-21T22:52:12;102119.25;;;17.09;100.00
57568;BME280;43403;51.948;5.922;2022-07-21T22:54:39;102125.25;;;17.11;100.00
57568;BME280;43403;51.948;5.922;2022-07-21T22:57:05;102125.06;;;17.13;100.00
57568;BME280;43403;51.948;5.922;2022-07-21T22:59:32;102123.72;;;17.09;100.00
57568;BME280;43403;51.948;5.922;2022-07-21T23:01:58;102138.97;;;17.15;100.00
57568;BME280;43403;51.948;5.922;2022-07-21T23:04:24;102140.13;;;17.12;100.00
57568;BME280;43403;51.948;5.922;2022-07-21T23:06:51;102135.47;;;17.06;100.00
57568;BME280;43403;51.948;5.922;2022-07-21T23:09:17;102139.44;;;17.02;100.00
57568;BME280;43403;51.948;5.922;2022-07-21T23:11:44;102130.81;;;17.00;100.00
57568;BME280;43403;51.948;5.922;2022-07-21T23:14:10;102137.75;;;17.01;100.00
57568;BME280;43403;51.948;5.922;2022-07-21T23:16:37;102137.25;;;16.97;100.00
57568;BME280;43403;51.948;5.922;2022-07-21T23:19:03;102142.03;;;16.94;100.00
57568;BME280;43403;51.948;5.922;2022-07-21T23:21:30;102137.19;;;16.89;100.00
57568;BME280;43403;51.948;5.922;2022-07-21T23:23:58;102142.84;;;16.94;100.00
57568;BME280;43403;51.948;5.922;2022-07-21T23:26:25;102141.50;;;16.90;100.00
57568;BME280;43403;51.948;5.922;2022-07-21T23:28:51;102146.81;;;16.90;100.00
57568;BME280;43403;51.948;5.922;2022-07-21T23:31:18;102128.03;;;16.84;100.00
57568;BME280;43403;51.948;5.922;2022-07-21T23:33:45;102132.72;;;16.90;100.00
57568;BME280;43403;51.948;5.922;2022-07-21T23:36:12;102128.25;;;16.90;100.00
57568;BME280;43403;51.948;5.922;2022-07-21T23:38:39;102116.50;;;16.93;100.00
57568;BME280;43403;51.948;5.922;2022-07-21T23:41:13;102123.47;;;16.94;100.00
57568;BME280;43403;51.948;5.922;2022-07-21T23:43:39;102124.16;;;16.96;100.00
57568;BME280;43403;51.948;5.922;2022-07-21T23:46:06;102119.81;;;16.95;100.00
57568;BME280;43403;51.948;5.922;2022-07-21T23:48:32;102119.69;;;16.96;100.00
57568;BME280;43403;51.948;5.922;2022-07-21T23:51:00;102127.63;;;16.96;100.00
57568;BME280;43403;51.948;5.922;2022-07-21T23:53:27;102120.50;;;16.97;100.00
57568;BME280;43403;51.948;5.922;2022-07-21T23:55:53;102121.66;;;16.94;100.00
57568;BME280;43403;51.948;5.922;2022-07-21T23:58:19;102118.00;;;16.95;100.00
